Bloomingburg, OH

6:28 PM EDT on August 30, 2014 (GMT -0400)
Slightly NW of WCH | Change Station
CLOSE
Current Station
Personal Weather Station
Location: WASHINGTON COURT HOUSE, OH
Elevation: 1020 ft
Nearby Weather Stations

Elev 1020 ft 39.57 °N, 83.50 °W | Updated 13 minutes ago

Partly Cloudy
Partly Cloudy
80.4 °F
Feels Like 84 °F
N
1.1
Wind Variable Wind from SSE

Today
High -- | Low -- °F
--% Chance of Precip.
Yesterday
High -- | Low -- °F
Precip. -- in
6:59 AM 8:07 PM
Waxing Crescent, 25% visible
Pressure 30.01 in
Visibility 10.0 miles
Clouds Mostly Cloudy 12000 ft
Heat Index 84 °F
Dew Point 71 °F
Humidity 74%
Rainfall 0.00 in
Snow Depth Not available.
UV 1 out of 12
Pollen 11.10 out of 12
Air Quality Not available.
Flu Activity Not available.
METAR KTZR 302150Z 23007KT 10SM BKN120 28/22 A3001

More Conditions Fewer Conditions

Pressure 30.01 in
Visibility 10.0 miles
Clouds Mostly Cloudy 12000 ft
Heat Index 84 °F
Dew Point 71 °F
Humidity 74%
Rainfall 0.00 in
Snow Depth Not available.
UV 1 out of 12
Pollen 11.10 out of 12
Air Quality Not available.
Flu Activity Not available.
METAR KTZR 302150Z 23007KT 10SM BKN120 28/22 A3001

More Conditions Fewer Conditions

10-Day Weather Forecast

Almanac

Astronomy

Aug. 30, 2014 Rise Set
Actual Time 6:59 AM EDT 8:07 PM EDT
Civil Twilight 6:32 AM EDT 8:35 PM EDT
Nautical Twilight 5:59 AM EDT 9:08 PM EDT
Astronomical Twilight 5:24 AM EDT 9:42 PM EDT
Moon 11:45 AM EDT 10:42 PM EDT
Length of Visible Light 14h 03m
Length of Day
13h 07m
Tomorrow will be 2m 29s shorter.
Waxing Crescent, 25% of the Moon is Illuminated
Today
Waxing Crescent
Sep 2
First Quarter
Sep 8
Full
Sep 15
Last Quarter
Sep 24
New

Today's Extremes

State Highs State Lows

Community

WunderPhotos

Upload Photos

1,748,657 photos uploaded!

WunderBlogs® & News

Nearby

Snow Depth

Station Depth Elevation
No new snow has been reported.

Earthquake Activity

City Distance Mag. Time & Date
No recent earthquake activity has been reported nearby.
Minimum magnitude displayed is 2.5.

Coastal Water Temperatures

Place Temperature
No Stations Reporting

Nearby Weather Stations